sensor_id;sensor_type;location;lat;lon;timestamp;temperature;humidity
41447;DHT22;27185;52.040;4.490;2023-08-20T00:01:26;19.90;99.90
41447;DHT22;27185;52.040;4.490;2023-08-20T00:04:12;19.90;99.90
41447;DHT22;27185;52.040;4.490;2023-08-20T00:06:59;19.80;99.90
41447;DHT22;27185;52.040;4.490;2023-08-20T00:09:44;19.90;99.90
41447;DHT22;27185;52.040;4.490;2023-08-20T00:12:30;19.90;99.90
41447;DHT22;27185;52.040;4.490;2023-08-20T00:15:16;19.90;99.90
41447;DHT22;27185;52.040;4.490;2023-08-20T00:18:03;19.90;99.90
41447;DHT22;27185;52.040;4.490;2023-08-20T00:20:48;19.90;99.90
41447;DHT22;27185;52.040;4.490;2023-08-20T00:23:35;19.90;99.90
41447;DHT22;27185;52.040;4.490;2023-08-20T00:26:22;19.90;99.90
41447;DHT22;27185;52.040;4.490;2023-08-20T00:29:07;20.00;99.90
41447;DHT22;27185;52.040;4.490;2023-08-20T00:31:53;20.00;99.90
41447;DHT22;27185;52.040;4.490;2023-08-20T00:34:39;20.00;99.90
41447;DHT22;27185;52.040;4.490;2023-08-20T00:37:25;20.10;99.90
41447;DHT22;27185;52.040;4.490;2023-08-20T00:40:11;20.10;99.90
41447;DHT22;27185;52.040;4.490;2023-08-20T00:42:57;20.20;99.90
41447;DHT22;27185;52.040;4.490;2023-08-20T00:45:42;20.30;99.90
41447;DHT22;27185;52.040;4.490;2023-08-20T00:48:28;20.30;99.90
41447;DHT22;27185;52.040;4.490;2023-08-20T00:51:14;20.30;99.90
41447;DHT22;27185;52.040;4.490;2023-08-20T00:54:01;20.40;99.90
41447;DHT22;27185;52.040;4.490;2023-08-20T00:56:49;20.40;99.90
41447;DHT22;27185;52.040;4.490;2023-08-20T00:59:35;20.40;99.90
41447;DHT22;27185;52.040;4.490;2023-08-20T01:02:21;20.40;99.90
41447;DHT22;27185;52.040;4.490;2023-08-20T01:05:11;20.40;99.90
41447;DHT22;27185;52.040;4.490;2023-08-20T01:11:06;20.30;99.90
41447;DHT22;27185;52.040;4.490;2023-08-20T01:13:55;20.30;99.90
41447;DHT22;27185;52.040;4.490;2023-08-20T01:16:40;20.30;99.90
41447;DHT22;27185;52.040;4.490;2023-08-20T01:19:26;20.30;99.90
41447;DHT22;27185;52.040;4.490;2023-08-20T01:22:56;20.30;99.90
41447;DHT22;27185;52.040;4.490;2023-08-20T01:28:34;20.30;99.90
41447;DHT22;27185;52.040;4.490;2023-08-20T01:31:20;20.30;99.90
41447;DHT22;27185;52.040;4.490;2023-08-20T01:34:06;20.30;99.90
41447;DHT22;27185;52.040;4.490;2023-08-20T01:36:52;20.20;99.90
41447;DHT22;27185;52.040;4.490;2023-08-20T01:39:37;20.20;99.90
41447;DHT22;27185;52.040;4.490;2023-08-20T01:42:23;20.10;99.90
41447;DHT22;27185;52.040;4.490;2023-08-20T01:45:09;20.10;99.90
41447;DHT22;27185;52.040;4.490;2023-08-20T01:47:54;20.10;99.90
41447;DHT22;27185;52.040;4.490;2023-08-20T01:50:40;20.00;99.90
41447;DHT22;27185;52.040;4.490;2023-08-20T01:53:25;19.90;99.90
41447;DHT22;27185;52.040;4.490;2023-08-20T01:56:12;19.90;99.90
41447;DHT22;27185;52.040;4.490;2023-08-20T01:58:58;19.80;99.90
41447;DHT22;27185;52.040;4.490;2023-08-20T02:01:44;19.70;99.90
41447;DHT22;27185;52.040;4.490;2023-08-20T02:04:29;19.70;99.90
41447;DHT22;27185;52.040;4.490;2023-08-20T02:07:15;19.60;99.90
41447;DHT22;27185;52.040;4.490;2023-08-20T02:10:00;19.50;99.90
41447;DHT22;27185;52.040;4.490;2023-08-20T02:12:46;19.50;99.90
41447;DHT22;27185;52.040;4.490;2023-08-20T02:15:32;19.40;99.90
41447;DHT22;27185;52.040;4.490;2023-08-20T02:18:17;19.40;99.90
41447;DHT22;27185;52.040;4.490;2023-08-20T02:21:03;19.30;99.90
41447;DHT22;27185;52.040;4.490;2023-08-20T02:23:49;19.30;99.90
41447;DHT22;27185;52.040;4.490;2023-08-20T02:26:34;19.20;99.90
41447;DHT22;27185;52.040;4.490;2023-08-20T02:29:20;19.20;99.90
41447;DHT22;27185;52.040;4.490;2023-08-20T02:32:05;19.20;99.90
41447;DHT22;27185;52.040;4.490;2023-08-20T02:34:51;19.10;99.90
41447;DHT22;27185;52.040;4.490;2023-08-20T02:37:37;19.10;99.90
41447;DHT22;27185;52.040;4.490;2023-08-20T02:40:23;19.00;99.90
41447;DHT22;27185;52.040;4.490;2023-08-20T02:43:10;19.00;99.90
41447;DHT22;27185;52.040;4.490;2023-08-20T02:45:55;19.00;99.90
41447;DHT22;27185;52.040;4.490;2023-08-20T02:48:41;19.00;99.90
41447;DHT22;27185;52.040;4.490;2023-08-20T02:51:27;19.00;99.90
41447;DHT22;27185;52.040;4.490;2023-08-20T02:54:12;18.90;99.90
41447;DHT22;27185;52.040;4.490;2023-08-20T02:56:58;19.00;99.90
41447;DHT22;27185;52.040;4.490;2023-08-20T02:59:44;19.00;99.90
41447;DHT22;27185;52.040;4.490;2023-08-20T03:02:30;19.00;99.90
41447;DHT22;27185;52.040;4.490;2023-08-20T03:05:15;19.00;99.90
41447;DHT22;27185;52.040;4.490;2023-08-20T03:08:01;19.00;99.90
41447;DHT22;27185;52.040;4.490;2023-08-20T03:10:47;19.00;99.90
41447;DHT22;27185;52.040;4.490;2023-08-20T03:13:32;19.00;99.90
41447;DHT22;27185;52.040;4.490;2023-08-20T03:16:18;19.00;99.90
41447;DHT22;27185;52.040;4.490;2023-08-20T03:19:04;19.00;99.90
41447;DHT22;27185;52.040;4.490;2023-08-20T03:21:49;19.00;99.90
41447;DHT22;27185;52.040;4.490;2023-08-20T03:24:35;18.90;99.90
41447;DHT22;27185;52.040;4.490;2023-08-20T03:27:20;18.90;99.90
41447;DHT22;27185;52.040;4.490;2023-08-20T03:30:06;18.90;99.90
41447;DHT22;27185;52.040;4.490;2023-08-20T03:32:52;18.90;99.90
41447;DHT22;27185;52.040;4.490;2023-08-20T03:35:39;18.80;99.90
41447;DHT22;27185;52.040;4.490;2023-08-20T03:38:24;18.80;99.90
41447;DHT22;27185;52.040;4.490;2023-08-20T03:41:10;18.80;99.90
41447;DHT22;27185;52.040;4.490;2023-08-20T03:43:55;18.80;99.90
41447;DHT22;27185;52.040;4.490;2023-08-20T03:46:41;18.80;99.90
41447;DHT22;27185;52.040;4.490;2023-08-20T03:49:26;18.70;99.90
41447;DHT22;27185;52.040;4.490;2023-08-20T03:52:12;18.70;99.90
41447;DHT22;27185;52.040;4.490;2023-08-20T03:54:57;18.70;99.90
41447;DHT22;27185;52.040;4.490;2023-08-20T03:57:43;18.60;99.90
41447;DHT22;27185;52.040;4.490;2023-08-20T04:00:28;18.60;99.90
41447;DHT22;27185;52.040;4.490;2023-08-20T04:03:15;18.60;99.90
41447;DHT22;27185;52.040;4.490;2023-08-20T04:06:04;18.50;99.90
41447;DHT22;27185;52.040;4.490;2023-08-20T04:08:50;18.50;99.90
41447;DHT22;27185;52.040;4.490;2023-08-20T04:11:35;18.50;99.90
41447;DHT22;27185;52.040;4.490;2023-08-20T04:14:21;18.40;99.90
41447;DHT22;27185;52.040;4.490;2023-08-20T04:17:06;18.30;99.90
41447;DHT22;27185;52.040;4.490;2023-08-20T04:19:52;18.30;99.90
41447;DHT22;27185;52.040;4.490;2023-08-20T04:22:38;18.30;99.90
41447;DHT22;27185;52.040;4.490;2023-08-20T04:25:23;18.30;99.90
41447;DHT22;27185;52.040;4.490;2023-08-20T04:28:09;18.30;99.90
41447;DHT22;27185;52.040;4.490;2023-08-20T04:30:54;18.30;99.90
41447;DHT22;27185;52.040;4.490;2023-08-20T04:33:40;18.30;99.90
41447;DHT22;27185;52.040;4.490;2023-08-20T04:36:26;18.30;99.90
41447;DHT22;27185;52.040;4.490;2023-08-20T04:39:11;18.30;99.90
41447;DHT22;27185;52.040;4.490;2023-08-20T04:41:57;18.30;99.90
41447;DHT22;27185;52.040;4.490;2023-08-20T04:44:42;18.20;99.90
41447;DHT22;27185;52.040;4.490;2023-08-20T04:47:28;18.20;99.90
41447;DHT22;27185;52.040;4.490;2023-08-20T04:50:14;18.20;99.90
41447;DHT22;27185;52.040;4.490;2023-08-20T04:52:59;18.20;99.90
41447;DHT22;27185;52.040;4.490;2023-08-20T04:55:45;18.20;99.90
41447;DHT22;27185;52.040;4.490;2023-08-20T04:58:32;18.20;99.90
41447;DHT22;27185;52.040;4.490;2023-08-20T05:01:18;18.20;99.90
41447;DHT22;27185;52.040;4.490;2023-08-20T05:04:03;18.20;99.90
41447;DHT22;27185;52.040;4.490;2023-08-20T05:06:49;18.20;99.90
41447;DHT22;27185;52.040;4.490;2023-08-20T05:09:34;18.30;99.90
41447;DHT22;27185;52.040;4.490;2023-08-20T05:12:20;18.30;99.90
41447;DHT22;27185;52.040;4.490;2023-08-20T05:15:06;18.30;99.90
41447;DHT22;27185;52.040;4.490;2023-08-20T05:17:51;18.30;99.90
41447;DHT22;27185;52.040;4.490;2023-08-20T05:20:39;18.30;99.90
41447;DHT22;27185;52.040;4.490;2023-08-20T05:23:24;18.40;99.90
41447;DHT22;27185;52.040;4.490;2023-08-20T05:26:10;18.40;99.90
41447;DHT22;27185;52.040;4.490;2023-08-20T05:28:56;18.50;99.90
41447;DHT22;27185;52.040;4.490;2023-08-20T05:31:41;18.50;99.90
41447;DHT22;27185;52.040;4.490;2023-08-20T05:34:27;18.60;99.90
41447;DHT22;27185;52.040;4.490;2023-08-20T05:37:12;18.60;99.90
41447;DHT22;27185;52.040;4.490;2023-08-20T05:39:58;18.60;99.90
41447;DHT22;27185;52.040;4.490;2023-08-20T05:42:43;18.60;99.90
41447;DHT22;27185;52.040;4.490;2023-08-20T05:45:29;18.70;99.90
41447;DHT22;27185;52.040;4.490;2023-08-20T05:48:15;18.80;99.90
41447;DHT22;27185;52.040;4.490;2023-08-20T05:51:00;18.80;99.90
41447;DHT22;27185;52.040;4.490;2023-08-20T05:53:46;18.90;99.90
41447;DHT22;27185;52.040;4.490;2023-08-20T05:56:31;18.90;99.90
41447;DHT22;27185;52.040;4.490;2023-08-20T05:59:17;19.00;99.90
41447;DHT22;27185;52.040;4.490;2023-08-20T06:02:02;19.00;99.90
41447;DHT22;27185;52.040;4.490;2023-08-20T06:04:48;19.10;99.90
41447;DHT22;27185;52.040;4.490;2023-08-20T06:07:35;19.10;99.90
41447;DHT22;27185;52.040;4.490;2023-08-20T06:10:21;19.20;99.90
41447;DHT22;27185;52.040;4.490;2023-08-20T06:13:07;19.30;99.90
41447;DHT22;27185;52.040;4.490;2023-08-20T06:15:52;19.30;99.90
41447;DHT22;27185;52.040;4.490;2023-08-20T06:18:38;19.40;99.90
41447;DHT22;27185;52.040;4.490;2023-08-20T06:21:23;19.50;99.90
41447;DHT22;27185;52.040;4.490;2023-08-20T06:24:09;19.50;99.90
41447;DHT22;27185;52.040;4.490;2023-08-20T06:26:55;19.60;99.90
41447;DHT22;27185;52.040;4.490;2023-08-20T06:29:40;19.70;99.90
41447;DHT22;27185;52.040;4.490;2023-08-20T06:32:26;19.70;99.90
41447;DHT22;27185;52.040;4.490;2023-08-20T06:35:11;19.80;99.90
41447;DHT22;27185;52.040;4.490;2023-08-20T06:37:57;19.90;99.90
41447;DHT22;27185;52.040;4.490;2023-08-20T06:40:42;19.90;99.90
41447;DHT22;27185;52.040;4.490;2023-08-20T06:43:28;20.10;99.90
41447;DHT22;27185;52.040;4.490;2023-08-20T06:46:14;20.10;99.90
41447;DHT22;27185;52.040;4.490;2023-08-20T06:49:00;20.20;99.90
41447;DHT22;27185;52.040;4.490;2023-08-20T06:51:45;20.30;99.90
41447;DHT22;27185;52.040;4.490;2023-08-20T06:54:31;20.40;99.90
41447;DHT22;27185;52.040;4.490;2023-08-20T06:57:16;20.40;99.90
41447;DHT22;27185;52.040;4.490;2023-08-20T07:00:02;20.50;99.90
41447;DHT22;27185;52.040;4.490;2023-08-20T07:02:50;20.60;99.90
41447;DHT22;27185;52.040;4.490;2023-08-20T07:05:35;20.70;99.90
41447;DHT22;27185;52.040;4.490;2023-08-20T07:08:21;20.80;99.90
41447;DHT22;27185;52.040;4.490;2023-08-20T07:11:07;20.90;99.90
41447;DHT22;27185;52.040;4.490;2023-08-20T07:13:52;21.00;99.90
41447;DHT22;27185;52.040;4.490;2023-08-20T07:16:38;21.10;99.90
41447;DHT22;27185;52.040;4.490;2023-08-20T07:19:23;21.10;99.90
41447;DHT22;27185;52.040;4.490;2023-08-20T07:22:09;21.20;99.90
41447;DHT22;27185;52.040;4.490;2023-08-20T07:24:54;21.30;99.90
41447;DHT22;27185;52.040;4.490;2023-08-20T07:27:40;21.40;99.90
41447;DHT22;27185;52.040;4.490;2023-08-20T07:30:28;21.50;99.90
41447;DHT22;27185;52.040;4.490;2023-08-20T07:33:14;21.50;99.90
41447;DHT22;27185;52.040;4.490;2023-08-20T07:36:00;21.60;99.90
41447;DHT22;27185;52.040;4.490;2023-08-20T07:38:46;21.70;99.90
41447;DHT22;27185;52.040;4.490;2023-08-20T07:41:31;21.80;99.90
41447;DHT22;27185;52.040;4.490;2023-08-20T07:44:17;21.80;99.90
41447;DHT22;27185;52.040;4.490;2023-08-20T07:47:02;21.90;99.90
41447;DHT22;27185;52.040;4.490;2023-08-20T07:49:48;21.90;99.90
41447;DHT22;27185;52.040;4.490;2023-08-20T07:52:34;22.00;99.90
41447;DHT22;27185;52.040;4.490;2023-08-20T07:55:19;22.00;99.90
41447;DHT22;27185;52.040;4.490;2023-08-20T07:58:05;22.10;99.90
41447;DHT22;27185;52.040;4.490;2023-08-20T08:00:51;22.20;99.90
41447;DHT22;27185;52.040;4.490;2023-08-20T08:03:37;22.30;99.90
41447;DHT22;27185;52.040;4.490;2023-08-20T08:06:22;22.30;99.90
41447;DHT22;27185;52.040;4.490;2023-08-20T08:09:26;22.40;99.90
41447;DHT22;27185;52.040;4.490;2023-08-20T08:12:12;22.50;99.90
41447;DHT22;27185;52.040;4.490;2023-08-20T08:14:58;22.50;99.90
41447;DHT22;27185;52.040;4.490;2023-08-20T08:17:44;22.60;99.90
41447;DHT22;27185;52.040;4.490;2023-08-20T08:20:30;22.70;99.90
41447;DHT22;27185;52.040;4.490;2023-08-20T08:23:15;22.80;99.90
41447;DHT22;27185;52.040;4.490;2023-08-20T08:26:01;22.90;99.90
41447;DHT22;27185;52.040;4.490;2023-08-20T08:28:47;22.90;99.90
41447;DHT22;27185;52.040;4.490;2023-08-20T08:31:33;23.00;99.90
41447;DHT22;27185;52.040;4.490;2023-08-20T08:34:19;23.00;99.90
41447;DHT22;27185;52.040;4.490;2023-08-20T08:37:04;23.10;99.90
41447;DHT22;27185;52.040;4.490;2023-08-20T08:39:50;23.10;99.90
41447;DHT22;27185;52.040;4.490;2023-08-20T08:42:35;23.10;99.90
41447;DHT22;27185;52.040;4.490;2023-08-20T08:45:21;23.30;99.90
41447;DHT22;27185;52.040;4.490;2023-08-20T08:48:07;23.30;99.90
41447;DHT22;27185;52.040;4.490;2023-08-20T08:50:53;23.40;99.90
41447;DHT22;27185;52.040;4.490;2023-08-20T08:53:38;23.50;99.90
41447;DHT22;27185;52.040;4.490;2023-08-20T08:56:24;23.60;99.90
41447;DHT22;27185;52.040;4.490;2023-08-20T08:59:10;23.70;99.90
41447;DHT22;27185;52.040;4.490;2023-08-20T09:01:55;23.80;99.90
41447;DHT22;27185;52.040;4.490;2023-08-20T09:04:42;23.90;99.90
41447;DHT22;27185;52.040;4.490;2023-08-20T09:07:28;23.90;99.90
41447;DHT22;27185;52.040;4.490;2023-08-20T09:10:17;24.00;99.90
41447;DHT22;27185;52.040;4.490;2023-08-20T09:13:03;24.00;99.90
41447;DHT22;27185;52.040;4.490;2023-08-20T09:15:54;24.10;99.90
41447;DHT22;27185;52.040;4.490;2023-08-20T09:18:41;24.20;99.90
41447;DHT22;27185;52.040;4.490;2023-08-20T09:21:27;24.20;99.90
41447;DHT22;27185;52.040;4.490;2023-08-20T09:24:15;24.30;99.90
41447;DHT22;27185;52.040;4.490;2023-08-20T09:27:03;24.30;99.90
41447;DHT22;27185;52.040;4.490;2023-08-20T09:29:53;24.40;99.90
41447;DHT22;27185;52.040;4.490;2023-08-20T09:32:39;24.40;99.90
41447;DHT22;27185;52.040;4.490;2023-08-20T09:35:24;24.50;99.90
41447;DHT22;27185;52.040;4.490;2023-08-20T09:38:10;24.50;99.90
41447;DHT22;27185;52.040;4.490;2023-08-20T09:40:55;24.60;99.90
41447;DHT22;27185;52.040;4.490;2023-08-20T09:43:42;24.70;99.90
41447;DHT22;27185;52.040;4.490;2023-08-20T09:46:31;24.70;99.90
41447;DHT22;27185;52.040;4.490;2023-08-20T09:49:18;24.80;99.90
41447;DHT22;27185;52.040;4.490;2023-08-20T09:52:09;25.00;99.90
41447;DHT22;27185;52.040;4.490;2023-08-20T09:57:48;25.70;99.20
41447;DHT22;27185;52.040;4.490;2023-08-20T10:00:35;26.10;98.90
41447;DHT22;27185;52.040;4.490;2023-08-20T10:03:21;26.30;98.30
41447;DHT22;27185;52.040;4.490;2023-08-20T10:06:07;26.60;97.70
41447;DHT22;27185;52.040;4.490;2023-08-20T10:08:53;26.80;96.90
41447;DHT22;27185;52.040;4.490;2023-08-20T10:11:40;27.00;96.80
41447;DHT22;27185;52.040;4.490;2023-08-20T10:14:25;27.10;95.90
41447;DHT22;27185;52.040;4.490;2023-08-20T10:17:12;27.20;96.50
41447;DHT22;27185;52.040;4.490;2023-08-20T10:19:58;27.40;95.90
41447;DHT22;27185;52.040;4.490;2023-08-20T10:22:45;27.50;95.60
41447;DHT22;27185;52.040;4.490;2023-08-20T10:25:31;27.60;95.90
41447;DHT22;27185;52.040;4.490;2023-08-20T10:28:25;27.80;95.80
41447;DHT22;27185;52.040;4.490;2023-08-20T10:31:12;28.10;95.90
41447;DHT22;27185;52.040;4.490;2023-08-20T10:33:58;28.40;95.90
41447;DHT22;27185;52.040;4.490;2023-08-20T10:36:50;28.60;94.90
41447;DHT22;27185;52.040;4.490;2023-08-20T10:39:36;28.80;92.90
41447;DHT22;27185;52.040;4.490;2023-08-20T10:42:28;28.90;94.10
41447;DHT22;27185;52.040;4.490;2023-08-20T10:45:14;29.00;92.90
41447;DHT22;27185;52.040;4.490;2023-08-20T10:48:00;29.10;93.40
41447;DHT22;27185;52.040;4.490;2023-08-20T10:50:45;29.10;93.00
41447;DHT22;27185;52.040;4.490;2023-08-20T10:53:31;29.10;92.60
41447;DHT22;27185;52.040;4.490;2023-08-20T10:56:17;29.20;92.70
41447;DHT22;27185;52.040;4.490;2023-08-20T10:59:29;29.30;92.70
41447;DHT22;27185;52.040;4.490;2023-08-20T11:02:19;29.50;91.30
41447;DHT22;27185;52.040;4.490;2023-08-20T11:05:17;29.60;92.50
41447;DHT22;27185;52.040;4.490;2023-08-20T11:08:03;29.80;90.10
41447;DHT22;27185;52.040;4.490;2023-08-20T11:10:53;29.90;91.50
41447;DHT22;27185;52.040;4.490;2023-08-20T11:13:39;29.90;90.60
41447;DHT22;27185;52.040;4.490;2023-08-20T11:16:25;30.00;90.70
41447;DHT22;27185;52.040;4.490;2023-08-20T11:19:11;30.10;90.90
41447;DHT22;27185;52.040;4.490;2023-08-20T11:21:57;30.10;90.50
41447;DHT22;27185;52.040;4.490;2023-08-20T11:24:43;30.20;89.00
41447;DHT22;27185;52.040;4.490;2023-08-20T11:27:28;30.30;89.30
41447;DHT22;27185;52.040;4.490;2023-08-20T11:30:14;30.30;89.30
41447;DHT22;27185;52.040;4.490;2023-08-20T11:33:00;30.30;89.10
41447;DHT22;27185;52.040;4.490;2023-08-20T11:35:45;30.30;89.20
41447;DHT22;27185;52.040;4.490;2023-08-20T11:38:31;30.40;88.70
41447;DHT22;27185;52.040;4.490;2023-08-20T11:41:18;30.50;88.30
41447;DHT22;27185;52.040;4.490;2023-08-20T11:44:04;30.60;88.10
41447;DHT22;27185;52.040;4.490;2023-08-20T11:46:50;30.70;87.80
41447;DHT22;27185;52.040;4.490;2023-08-20T11:49:35;30.80;88.00
41447;DHT22;27185;52.040;4.490;2023-08-20T11:52:23;30.90;87.10
41447;DHT22;27185;52.040;4.490;2023-08-20T11:55:08;31.00;86.40
41447;DHT22;27185;52.040;4.490;2023-08-20T11:57:54;31.00;86.00
41447;DHT22;27185;52.040;4.490;2023-08-20T12:00:40;31.00;85.80
41447;DHT22;27185;52.040;4.490;2023-08-20T12:03:29;30.80;86.20
41447;DHT22;27185;52.040;4.490;2023-08-20T12:06:20;30.70;85.10
41447;DHT22;27185;52.040;4.490;2023-08-20T12:09:20;30.50;85.70
41447;DHT22;27185;52.040;4.490;2023-08-20T12:12:07;30.50;85.40
41447;DHT22;27185;52.040;4.490;2023-08-20T12:14:53;30.60;86.20
41447;DHT22;27185;52.040;4.490;2023-08-20T12:17:38;30.60;85.60
41447;DHT22;27185;52.040;4.490;2023-08-20T12:20:27;30.70;85.80
41447;DHT22;27185;52.040;4.490;2023-08-20T12:23:13;30.90;83.20
41447;DHT22;27185;52.040;4.490;2023-08-20T12:25:58;31.00;84.40
41447;DHT22;27185;52.040;4.490;2023-08-20T12:28:44;30.90;83.90
41447;DHT22;27185;52.040;4.490;2023-08-20T12:31:31;30.80;83.20
41447;DHT22;27185;52.040;4.490;2023-08-20T12:34:16;30.60;82.70
41447;DHT22;27185;52.040;4.490;2023-08-20T12:37:02;30.40;82.70
41447;DHT22;27185;52.040;4.490;2023-08-20T12:39:48;30.10;83.50
41447;DHT22;27185;52.040;4.490;2023-08-20T12:42:34;30.00;84.30
41447;DHT22;27185;52.040;4.490;2023-08-20T12:45:19;29.80;84.70
41447;DHT22;27185;52.040;4.490;2023-08-20T12:48:05;29.80;85.10
41447;DHT22;27185;52.040;4.490;2023-08-20T12:50:52;30.00;85.70
41447;DHT22;27185;52.040;4.490;2023-08-20T12:53:38;30.20;85.80
41447;DHT22;27185;52.040;4.490;2023-08-20T12:56:23;30.40;86.10
41447;DHT22;27185;52.040;4.490;2023-08-20T12:59:09;30.70;85.70
41447;DHT22;27185;52.040;4.490;2023-08-20T13:01:54;30.90;85.60
41447;DHT22;27185;52.040;4.490;2023-08-20T13:04:41;31.00;85.00
41447;DHT22;27185;52.040;4.490;2023-08-20T13:07:27;31.20;84.60
41447;DHT22;27185;52.040;4.490;2023-08-20T13:10:13;31.30;84.40
41447;DHT22;27185;52.040;4.490;2023-08-20T13:13:03;31.40;84.00
41447;DHT22;27185;52.040;4.490;2023-08-20T13:15:51;31.50;82.00
41447;DHT22;27185;52.040;4.490;2023-08-20T13:18:37;31.50;82.00
41447;DHT22;27185;52.040;4.490;2023-08-20T13:21:22;31.50;81.50
41447;DHT22;27185;52.040;4.490;2023-08-20T13:24:08;31.30;81.50
41447;DHT22;27185;52.040;4.490;2023-08-20T13:26:54;31.30;81.70
41447;DHT22;27185;52.040;4.490;2023-08-20T13:29:43;31.20;81.40
41447;DHT22;27185;52.040;4.490;2023-08-20T13:32:28;31.10;81.40
41447;DHT22;27185;52.040;4.490;2023-08-20T13:35:14;30.90;81.40
41447;DHT22;27185;52.040;4.490;2023-08-20T13:38:00;30.80;81.90
41447;DHT22;27185;52.040;4.490;2023-08-20T13:40:45;30.70;81.80
41447;DHT22;27185;52.040;4.490;2023-08-20T13:43:31;30.60;81.90
41447;DHT22;27185;52.040;4.490;2023-08-20T13:46:16;30.50;81.70
41447;DHT22;27185;52.040;4.490;2023-08-20T13:49:02;30.50;81.60
41447;DHT22;27185;52.040;4.490;2023-08-20T13:51:48;30.50;81.60
41447;DHT22;27185;52.040;4.490;2023-08-20T13:54:35;30.50;81.60
41447;DHT22;27185;52.040;4.490;2023-08-20T13:57:21;30.60;80.90
41447;DHT22;27185;52.040;4.490;2023-08-20T14:00:07;30.70;81.00
41447;DHT22;27185;52.040;4.490;2023-08-20T14:02:55;30.80;81.40
41447;DHT22;27185;52.040;4.490;2023-08-20T14:05:41;31.00;81.10
41447;DHT22;27185;52.040;4.490;2023-08-20T14:08:27;31.10;80.30
41447;DHT22;27185;52.040;4.490;2023-08-20T14:11:12;31.20;80.60
41447;DHT22;27185;52.040;4.490;2023-08-20T14:13:58;31.20;80.00
41447;DHT22;27185;52.040;4.490;2023-08-20T14:16:43;31.20;79.70
41447;DHT22;27185;52.040;4.490;2023-08-20T14:19:29;31.30;80.30
41447;DHT22;27185;52.040;4.490;2023-08-20T14:22:14;31.30;79.90
41447;DHT22;27185;52.040;4.490;2023-08-20T14:25:00;31.30;79.90
41447;DHT22;27185;52.040;4.490;2023-08-20T14:27:45;31.30;79.20
41447;DHT22;27185;52.040;4.490;2023-08-20T14:30:36;31.30;79.10
41447;DHT22;27185;52.040;4.490;2023-08-20T14:33:22;31.30;78.10
41447;DHT22;27185;52.040;4.490;2023-08-20T14:36:08;31.30;77.90
41447;DHT22;27185;52.040;4.490;2023-08-20T14:38:53;31.30;77.50
41447;DHT22;27185;52.040;4.490;2023-08-20T14:41:39;31.40;78.20
41447;DHT22;27185;52.040;4.490;2023-08-20T14:44:25;31.50;78.40
41447;DHT22;27185;52.040;4.490;2023-08-20T14:47:11;31.50;77.60
41447;DHT22;27185;52.040;4.490;2023-08-20T14:49:57;31.60;77.00
41447;DHT22;27185;52.040;4.490;2023-08-20T14:52:43;31.50;77.10
41447;DHT22;27185;52.040;4.490;2023-08-20T14:55:28;31.50;76.90
41447;DHT22;27185;52.040;4.490;2023-08-20T14:58:14;31.50;76.50
41447;DHT22;27185;52.040;4.490;2023-08-20T15:00:59;31.50;76.10
41447;DHT22;27185;52.040;4.490;2023-08-20T15:03:45;31.40;75.70
41447;DHT22;27185;52.040;4.490;2023-08-20T15:06:31;31.20;75.90
41447;DHT22;27185;52.040;4.490;2023-08-20T15:09:17;31.10;76.70
41447;DHT22;27185;52.040;4.490;2023-08-20T15:12:03;31.00;76.30
41447;DHT22;27185;52.040;4.490;2023-08-20T15:14:49;31.10;76.20
41447;DHT22;27185;52.040;4.490;2023-08-20T15:17:35;31.10;76.40
41447;DHT22;27185;52.040;4.490;2023-08-20T15:20:21;31.10;75.80
41447;DHT22;27185;52.040;4.490;2023-08-20T15:23:07;31.20;74.40
41447;DHT22;27185;52.040;4.490;2023-08-20T15:25:54;31.20;76.50
41447;DHT22;27185;52.040;4.490;2023-08-20T15:28:40;31.30;75.80
41447;DHT22;27185;52.040;4.490;2023-08-20T15:31:25;31.30;76.50
41447;DHT22;27185;52.040;4.490;2023-08-20T15:34:13;31.30;76.40
41447;DHT22;27185;52.040;4.490;2023-08-20T15:36:59;31.40;76.70
41447;DHT22;27185;52.040;4.490;2023-08-20T15:39:45;31.50;76.30
41447;DHT22;27185;52.040;4.490;2023-08-20T15:42:30;31.50;75.40
41447;DHT22;27185;52.040;4.490;2023-08-20T15:45:19;31.50;75.30
41447;DHT22;27185;52.040;4.490;2023-08-20T15:48:05;31.50;76.00
41447;DHT22;27185;52.040;4.490;2023-08-20T15:50:51;31.60;75.80
41447;DHT22;27185;52.040;4.490;2023-08-20T15:53:36;31.70;75.80
41447;DHT22;27185;52.040;4.490;2023-08-20T15:56:24;31.80;75.20
41447;DHT22;27185;52.040;4.490;2023-08-20T15:59:10;31.80;75.20
41447;DHT22;27185;52.040;4.490;2023-08-20T16:01:56;31.80;74.70
41447;DHT22;27185;52.040;4.490;2023-08-20T16:04:42;31.90;74.50
41447;DHT22;27185;52.040;4.490;2023-08-20T16:07:28;31.80;74.50
41447;DHT22;27185;52.040;4.490;2023-08-20T16:10:14;31.80;74.40
41447;DHT22;27185;52.040;4.490;2023-08-20T16:13:00;31.80;74.50
41447;DHT22;27185;52.040;4.490;2023-08-20T16:15:47;31.80;75.40
41447;DHT22;27185;52.040;4.490;2023-08-20T16:18:33;31.80;74.70
41447;DHT22;27185;52.040;4.490;2023-08-20T16:21:18;31.80;74.50
41447;DHT22;27185;52.040;4.490;2023-08-20T16:24:04;31.90;74.40
41447;DHT22;27185;52.040;4.490;2023-08-20T16:26:50;31.80;74.50
41447;DHT22;27185;52.040;4.490;2023-08-20T16:29:36;32.00;74.80
41447;DHT22;27185;52.040;4.490;2023-08-20T16:32:23;32.00;74.70
41447;DHT22;27185;52.040;4.490;2023-08-20T16:35:08;32.10;74.20
41447;DHT22;27185;52.040;4.490;2023-08-20T16:37:54;32.10;74.40
41447;DHT22;27185;52.040;4.490;2023-08-20T16:40:40;32.10;74.40
41447;DHT22;27185;52.040;4.490;2023-08-20T16:43:25;32.10;73.90
41447;DHT22;27185;52.040;4.490;2023-08-20T16:46:11;32.10;73.90
41447;DHT22;27185;52.040;4.490;2023-08-20T16:48:56;32.10;73.90
41447;DHT22;27185;52.040;4.490;2023-08-20T16:51:42;32.10;74.00
41447;DHT22;27185;52.040;4.490;2023-08-20T16:54:28;32.10;73.80
41447;DHT22;27185;52.040;4.490;2023-08-20T16:57:13;32.10;73.90
41447;DHT22;27185;52.040;4.490;2023-08-20T16:59:59;32.10;73.60
41447;DHT22;27185;52.040;4.490;2023-08-20T17:02:45;32.00;73.50
41447;DHT22;27185;52.040;4.490;2023-08-20T17:05:31;32.00;73.70
41447;DHT22;27185;52.040;4.490;2023-08-20T17:08:17;32.00;73.90
41447;DHT22;27185;52.040;4.490;2023-08-20T17:11:07;31.90;73.50
41447;DHT22;27185;52.040;4.490;2023-08-20T17:13:53;31.80;72.70
41447;DHT22;27185;52.040;4.490;2023-08-20T17:16:39;31.80;73.60
41447;DHT22;27185;52.040;4.490;2023-08-20T17:19:25;31.70;73.30
41447;DHT22;27185;52.040;4.490;2023-08-20T17:22:11;31.70;73.80
41447;DHT22;27185;52.040;4.490;2023-08-20T17:24:56;31.60;73.70
41447;DHT22;27185;52.040;4.490;2023-08-20T17:27:42;31.60;73.70
41447;DHT22;27185;52.040;4.490;2023-08-20T17:30:27;31.50;73.80
41447;DHT22;27185;52.040;4.490;2023-08-20T17:33:14;31.30;74.10
41447;DHT22;27185;52.040;4.490;2023-08-20T17:36:01;31.00;73.20
41447;DHT22;27185;52.040;4.490;2023-08-20T17:38:46;30.60;73.30